createdAt,value
2019-02-14T00:00:31.211Z,115.37
2019-02-14T00:01:31.385Z,115.37
2019-02-14T00:02:31.528Z,115.37
2019-02-14T00:03:31.851Z,115.53
2019-02-14T00:04:31.912Z,115.37
2019-02-14T00:05:32.032Z,115.21
2019-02-14T00:06:32.195Z,115.21
2019-02-14T00:07:32.363Z,115.21
2019-02-14T00:08:32.543Z,115.21
2019-02-14T00:09:32.703Z,115.21
2019-02-14T00:10:32.872Z,115.53
2019-02-14T00:11:33.036Z,115.53
2019-02-14T00:12:33.204Z,115.37
2019-02-14T00:13:33.349Z,115.53
2019-02-14T00:14:33.484Z,115.37
2019-02-14T00:15:33.578Z,115.37
2019-02-14T00:16:33.886Z,115.37
2019-02-14T00:17:33.982Z,115.53
2019-02-14T00:18:34.242Z,115.53
2019-02-14T00:19:34.419Z,115.37
2019-02-14T00:20:34.534Z,115.37
2019-02-14T00:21:34.666Z,115.53
2019-02-14T00:22:34.775Z,115.53
2019-02-14T00:23:35.019Z,115.53
2019-02-14T00:24:35.254Z,115.69
2019-02-14T00:25:35.390Z,115.69
2019-02-14T00:26:35.539Z,115.53
2019-02-14T00:27:35.662Z,115.37
2019-02-14T00:28:35.924Z,115.53
2019-02-14T00:29:36.142Z,115.69
2019-02-14T00:30:36.241Z,115.53
2019-02-14T00:31:36.507Z,115.37
2019-02-14T00:32:36.622Z,115.37
2019-02-14T00:33:36.830Z,115.69
2019-02-14T00:34:37.107Z,115.69
2019-02-14T00:35:37.198Z,115.53
2019-02-14T00:36:37.476Z,115.53
2019-02-14T00:37:37.676Z,115.53
2019-02-14T00:38:37.794Z,115.53
2019-02-14T00:39:37.912Z,115.69
2019-02-14T00:40:38.079Z,115.69
2019-02-14T00:41:38.276Z,115.53
2019-02-14T00:42:38.437Z,115.37
2019-02-14T00:43:38.589Z,115.37
2019-02-14T00:44:38.749Z,115.37
2019-02-14T00:45:38.902Z,115.69
2019-02-14T00:46:39.070Z,115.53
2019-02-14T00:47:39.230Z,115.53
2019-02-14T00:48:39.371Z,115.69
2019-02-14T00:49:39.521Z,115.53
2019-02-14T00:50:39.684Z,115.37
2019-02-14T00:51:39.865Z,115.69
2019-02-14T00:52:40.048Z,115.69
2019-02-14T00:53:40.181Z,115.37
2019-02-14T00:54:40.342Z,115.53
2019-02-14T00:55:40.486Z,115.53
2019-02-14T00:56:40.669Z,115.37
2019-02-14T00:57:40.870Z,115.53
2019-02-14T00:58:41.011Z,115.69
2019-02-14T00:59:41.192Z,115.53
2019-02-14T01:00:41.353Z,115.69
2019-02-14T01:01:41.516Z,115.53
2019-02-14T01:02:41.659Z,115.53
2019-02-14T01:03:42.344Z,115.53
2019-02-14T01:04:41.979Z,115.69
2019-02-14T01:05:42.142Z,115.53
2019-02-14T01:06:42.324Z,115.69
2019-02-14T01:07:42.486Z,115.53
2019-02-14T01:08:42.640Z,115.53
2019-02-14T01:09:42.788Z,115.53
2019-02-14T01:10:42.961Z,115.37
2019-02-14T01:11:43.110Z,115.37
2019-02-14T01:12:43.272Z,115.53
2019-02-14T01:13:43.455Z,115.37
2019-02-14T01:14:43.608Z,115.53
2019-02-14T01:15:43.771Z,115.53
2019-02-14T01:16:43.901Z,115.69
2019-02-14T01:17:45.218Z,115.53
2019-02-14T01:18:44.314Z,115.53
2019-02-14T01:19:44.737Z,115.53
2019-02-14T01:20:44.856Z,115.69
2019-02-14T01:21:45.074Z,115.53
2019-02-14T01:22:45.261Z,115.69
2019-02-14T01:23:45.463Z,115.53
2019-02-14T01:24:45.680Z,115.85
2019-02-14T01:25:45.784Z,115.69
2019-02-14T01:26:46.832Z,115.69
2019-02-14T01:27:47.106Z,116.02
2019-02-14T01:28:46.283Z,115.85
2019-02-14T01:29:46.442Z,115.69
2019-02-14T01:30:46.660Z,115.69
2019-02-14T01:31:46.804Z,115.85
2019-02-14T01:32:46.959Z,115.85
2019-02-14T01:33:47.111Z,115.69
2019-02-14T01:34:47.276Z,115.69
2019-02-14T01:35:47.406Z,115.69
2019-02-14T01:36:47.578Z,115.69
2019-02-14T01:37:48.275Z,115.53
2019-02-14T01:38:48.961Z,115.53
2019-02-14T01:39:48.182Z,115.53
2019-02-14T01:40:48.340Z,115.69
2019-02-14T01:41:48.483Z,115.85
2019-02-14T01:42:48.673Z,115.69
2019-02-14T01:43:48.812Z,115.85
2019-02-14T01:44:48.933Z,115.69
2019-02-14T01:45:49.156Z,115.69
2019-02-14T01:46:49.428Z,115.69
2019-02-14T01:47:49.606Z,115.69
2019-02-14T01:48:49.787Z,116.02
2019-02-14T01:49:49.923Z,116.02
2019-02-14T01:50:50.050Z,115.69
2019-02-14T01:51:50.210Z,116.02
2019-02-14T01:52:50.376Z,116.02
2019-02-14T01:53:50.499Z,116.02
2019-02-14T01:54:50.773Z,115.85
2019-02-14T01:55:50.901Z,115.85
2019-02-14T01:56:51.043Z,115.85
2019-02-14T01:57:51.321Z,116.02
2019-02-14T01:58:51.432Z,115.85
2019-02-14T01:59:51.579Z,115.85
2019-02-14T02:00:51.672Z,115.85
2019-02-14T02:01:52.922Z,116.02
2019-02-14T02:02:52.076Z,115.85
2019-02-14T02:04:06.961Z,115.85
2019-02-14T02:04:53.336Z,115.69
2019-02-14T02:05:52.560Z,116.82
2019-02-14T02:06:52.672Z,116.02
2019-02-14T02:07:52.918Z,115.85
2019-02-14T02:08:53.039Z,115.69
2019-02-14T02:09:53.203Z,115.69
2019-02-14T02:10:53.357Z,115.85
2019-02-14T02:11:53.490Z,115.69
2019-02-14T02:12:53.737Z,115.85
2019-02-14T02:13:53.885Z,116.18
2019-02-14T02:14:53.991Z,115.85
2019-02-14T02:15:54.239Z,116.18
2019-02-14T02:16:54.466Z,116.18
2019-02-14T02:17:54.591Z,116.18
2019-02-14T02:18:54.768Z,115.85
2019-02-14T02:19:55.877Z,116.18
2019-02-14T02:20:55.101Z,116.18
2019-02-14T02:21:56.961Z,116.02
2019-02-14T02:22:55.380Z,116.02
2019-02-14T02:23:55.615Z,116.02
2019-02-14T02:24:56.843Z,115.85
2019-02-14T02:25:57.061Z,116.18
2019-02-14T02:26:57.304Z,116.02
2019-02-14T02:27:56.534Z,115.85
2019-02-14T02:28:56.665Z,116.02
2019-02-14T02:29:56.846Z,116.02
2019-02-14T02:30:56.992Z,116.02
2019-02-14T02:31:57.159Z,116.02
2019-02-14T02:32:57.315Z,116.02
2019-02-14T02:33:57.453Z,116.18
2019-02-14T02:34:57.606Z,116.02
2019-02-14T02:36:00.512Z,116.02
2019-02-14T02:36:58.877Z,116.34
2019-02-14T02:37:58.057Z,116.18
2019-02-14T02:38:58.188Z,116.18
2019-02-14T02:39:58.316Z,116.18
2019-02-14T02:40:58.426Z,116.18
2019-02-14T02:41:58.609Z,116.18
2019-02-14T02:42:58.717Z,116.34
2019-02-14T02:43:58.988Z,116.18
2019-02-14T02:44:59.075Z,116.02
2019-02-14T02:45:59.316Z,116.02
2019-02-14T02:46:59.578Z,116.18
2019-02-14T02:47:59.702Z,116.34
2019-02-14T02:48:59.819Z,116.02
2019-02-14T02:49:59.943Z,116.02
2019-02-14T02:51:00.072Z,116.18
2019-02-14T02:52:00.205Z,116.34
2019-02-14T02:53:00.392Z,116.18
2019-02-14T02:54:00.551Z,116.18
2019-02-14T02:55:00.739Z,116.18
2019-02-14T02:56:00.919Z,116.18
2019-02-14T02:57:01.078Z,116.34
2019-02-14T02:58:01.288Z,116.34
2019-02-14T02:59:01.537Z,116.02
2019-02-14T03:00:01.681Z,116.02
2019-02-14T03:01:01.828Z,116.02
2019-02-14T03:02:02.003Z,116.02
2019-02-14T03:03:02.432Z,116.02
2019-02-14T03:04:02.390Z,116.02
2019-02-14T03:05:02.536Z,115.69
2019-02-14T03:06:10.229Z,116.02
2019-02-14T03:07:04.940Z,116.02
2019-02-14T03:08:03.186Z,115.85
2019-02-14T03:09:03.329Z,115.85
2019-02-14T03:10:03.507Z,116.02
2019-02-14T03:11:03.671Z,115.85
2019-02-14T03:12:03.822Z,115.85
2019-02-14T03:13:04.009Z,115.85
2019-02-14T03:14:04.172Z,115.85
2019-02-14T03:15:04.354Z,115.85
2019-02-14T03:16:04.538Z,116.02
2019-02-14T03:17:04.695Z,115.85
2019-02-14T03:18:04.885Z,115.69
2019-02-14T03:19:05.102Z,115.69
2019-02-14T03:20:05.287Z,115.69
2019-02-14T03:21:05.411Z,115.69
2019-02-14T03:22:05.560Z,115.69
2019-02-14T03:23:05.721Z,115.69
2019-02-14T03:24:05.871Z,115.69
2019-02-14T03:25:06.884Z,115.69
2019-02-14T03:26:06.240Z,116.02
2019-02-14T03:27:06.365Z,115.69
2019-02-14T03:28:06.473Z,115.69
2019-02-14T03:29:06.770Z,115.85
2019-02-14T03:30:06.909Z,115.85
2019-02-14T03:31:07.014Z,115.85
2019-02-14T03:32:07.273Z,115.85
2019-02-14T03:33:07.400Z,116.02
2019-02-14T03:34:07.663Z,115.85
2019-02-14T03:35:07.819Z,115.85
2019-02-14T03:36:07.994Z,115.69
2019-02-14T03:37:09.144Z,116.02
2019-02-14T03:38:08.280Z,115.85
2019-02-14T03:39:08.501Z,115.85
2019-02-14T03:40:08.628Z,115.85
2019-02-14T03:41:08.768Z,115.85
2019-02-14T03:42:08.974Z,116.02
2019-02-14T03:43:09.158Z,116.02
2019-02-14T03:44:09.323Z,115.69
2019-02-14T03:45:09.477Z,116.02
2019-02-14T03:46:09.687Z,115.85
2019-02-14T03:47:09.850Z,116.18
2019-02-14T03:48:10.062Z,115.85
2019-02-14T03:49:10.251Z,116.34
2019-02-14T03:50:10.410Z,116.02
2019-02-14T03:51:10.576Z,115.85
2019-02-14T03:52:10.738Z,115.69
2019-02-14T03:53:10.901Z,115.85
2019-02-14T03:54:11.089Z,115.69
2019-02-14T03:55:11.279Z,115.85
2019-02-14T03:56:11.490Z,115.85
2019-02-14T03:57:11.691Z,115.85
2019-02-14T03:58:11.857Z,115.53
2019-02-14T03:59:12.060Z,115.37
2019-02-14T04:00:12.235Z,115.85
2019-02-14T04:01:12.362Z,115.53
2019-02-14T04:02:12.510Z,115.53
2019-02-14T04:03:12.697Z,115.53
2019-02-14T04:04:12.859Z,115.53
2019-02-14T04:05:13.010Z,115.53
2019-02-14T04:06:13.191Z,115.69
2019-02-14T04:07:13.368Z,115.37
2019-02-14T04:08:13.504Z,115.53
2019-02-14T04:09:13.629Z,115.21
2019-02-14T04:10:13.758Z,116.34
2019-02-14T04:11:13.905Z,115.37
2019-02-14T04:12:14.017Z,115.37
2019-02-14T04:13:14.279Z,115.21
2019-02-14T04:14:14.417Z,115.53
2019-02-14T04:15:14.559Z,115.53
2019-02-14T04:16:14.693Z,115.53
2019-02-14T04:17:14.836Z,115.53
2019-02-14T04:18:14.996Z,115.53
2019-02-14T04:19:15.145Z,115.37
2019-02-14T04:20:15.329Z,115.53
2019-02-14T04:21:15.517Z,115.53
2019-02-14T04:22:15.685Z,115.37
2019-02-14T04:23:15.859Z,115.37
2019-02-14T04:24:16.051Z,115.69
2019-02-14T04:25:16.261Z,115.53
2019-02-14T04:26:16.464Z,115.53
2019-02-14T04:27:16.612Z,115.69
2019-02-14T04:28:16.806Z,115.53
2019-02-14T04:29:17.001Z,115.37
2019-02-14T04:30:17.179Z,115.37
2019-02-14T04:31:17.362Z,115.37
2019-02-14T04:32:17.549Z,115.53
2019-02-14T04:33:17.745Z,115.37
2019-02-14T04:34:17.930Z,115.53
2019-02-14T04:35:18.072Z,115.53
2019-02-14T04:36:18.268Z,115.05
2019-02-14T04:37:18.466Z,115.37
2019-02-14T04:38:18.699Z,115.53
2019-02-14T04:39:18.891Z,115.21
2019-02-14T04:40:19.046Z,115.53
2019-02-14T04:41:19.201Z,115.37
2019-02-14T04:42:20.378Z,115.53
2019-02-14T04:43:19.472Z,115.53
2019-02-14T04:44:19.669Z,115.53
2019-02-14T04:45:19.830Z,115.53
2019-02-14T04:46:20.005Z,115.37
2019-02-14T04:47:20.149Z,115.53
2019-02-14T04:48:20.319Z,115.05
2019-02-14T04:49:20.475Z,115.37
2019-02-14T04:50:21.612Z,115.21
2019-02-14T04:51:20.889Z,115.21
2019-02-14T04:52:21.063Z,115.21
2019-02-14T04:53:21.199Z,115.21
2019-02-14T04:54:21.336Z,115.21
2019-02-14T04:55:21.483Z,115.53
2019-02-14T04:56:21.632Z,115.05
2019-02-14T04:57:21.763Z,115.05
2019-02-14T04:58:21.890Z,115.21
2019-02-14T04:59:22.064Z,115.37
2019-02-14T05:00:22.211Z,115.37
2019-02-14T05:01:22.381Z,115.53
2019-02-14T05:02:22.577Z,114.89
2019-02-14T05:03:22.735Z,115.05
2019-02-14T05:04:22.885Z,115.69
2019-02-14T05:05:23.870Z,115.53
2019-02-14T05:06:23.275Z,115.69
2019-02-14T05:07:23.425Z,115.53
2019-02-14T05:08:23.620Z,115.37
2019-02-14T05:09:23.775Z,115.53
2019-02-14T05:10:23.933Z,115.37
2019-02-14T05:11:24.118Z,115.37
2019-02-14T05:12:26.156Z,115.21
2019-02-14T05:13:24.510Z,115.53
2019-02-14T05:14:24.672Z,115.69
2019-02-14T05:15:24.859Z,116.18
2019-02-14T05:16:25.029Z,115.53
2019-02-14T05:17:25.181Z,115.69
2019-02-14T05:18:25.378Z,115.53
2019-02-14T05:19:25.487Z,115.53
2019-02-14T05:20:25.693Z,115.53
2019-02-14T05:21:25.861Z,115.53
2019-02-14T05:22:26.012Z,115.53
2019-02-14T05:23:26.161Z,115.53
2019-02-14T05:24:26.329Z,115.53
2019-02-14T05:25:26.520Z,115.69
2019-02-14T05:26:26.671Z,115.37
2019-02-14T05:27:26.877Z,115.37
2019-02-14T05:28:27.047Z,115.69
2019-02-14T05:29:27.180Z,115.69
2019-02-14T05:30:27.349Z,115.53
2019-02-14T05:31:27.526Z,115.53
2019-02-14T05:32:27.670Z,115.37
2019-02-14T05:33:27.801Z,115.53
2019-02-14T05:34:27.982Z,115.37
2019-02-14T05:35:28.161Z,116.66
2019-02-14T05:36:28.331Z,116.50
2019-02-14T05:37:28.459Z,115.37
2019-02-14T05:38:28.595Z,115.05
2019-02-14T05:39:28.757Z,115.37
2019-02-14T05:40:28.954Z,115.37
2019-02-14T05:41:29.107Z,115.21
2019-02-14T05:42:29.248Z,115.21
2019-02-14T05:43:29.364Z,115.21
2019-02-14T05:44:29.552Z,115.37
2019-02-14T05:45:29.742Z,115.21
2019-02-14T05:46:29.880Z,115.37
2019-02-14T05:47:29.999Z,115.37
2019-02-14T05:48:30.154Z,115.21
2019-02-14T05:49:30.350Z,115.37
2019-02-14T05:50:30.555Z,115.53
2019-02-14T05:51:30.693Z,115.37
2019-02-14T05:52:30.848Z,115.05
2019-02-14T05:53:31.029Z,115.21
2019-02-14T05:54:31.992Z,115.53
2019-02-14T05:55:31.414Z,116.18
2019-02-14T05:56:31.539Z,115.53
2019-02-14T05:57:31.691Z,115.53
2019-02-14T05:58:31.882Z,115.37
2019-02-14T05:59:32.014Z,115.37
2019-02-14T06:00:32.167Z,115.37
2019-02-14T06:01:32.344Z,115.37
2019-02-14T06:02:32.558Z,115.21
2019-02-14T06:03:32.707Z,115.21
2019-02-14T06:04:32.837Z,115.53
2019-02-14T06:05:32.970Z,115.21
2019-02-14T06:06:33.123Z,115.21
2019-02-14T06:07:33.264Z,115.21
2019-02-14T06:08:33.419Z,115.37
2019-02-14T06:09:33.602Z,115.21
2019-02-14T06:10:33.734Z,115.85
2019-02-14T06:11:33.902Z,115.21
2019-02-14T06:12:34.091Z,115.37
2019-02-14T06:13:34.239Z,115.37
2019-02-14T06:14:34.430Z,115.37
2019-02-14T06:15:34.576Z,115.37
2019-02-14T06:16:34.725Z,114.89
2019-02-14T06:17:34.917Z,115.21
2019-02-14T06:18:35.071Z,115.21
2019-02-14T06:19:35.236Z,115.21
2019-02-14T06:20:35.409Z,115.37
2019-02-14T06:21:35.547Z,115.21
2019-02-14T06:22:35.724Z,115.53
2019-02-14T06:23:35.904Z,115.37
2019-02-14T06:24:36.058Z,115.05
2019-02-14T06:25:36.237Z,115.05
2019-02-14T06:26:36.374Z,115.21
2019-02-14T06:27:37.496Z,115.21
2019-02-14T06:28:37.382Z,115.05
2019-02-14T06:29:37.975Z,115.21
2019-02-14T06:30:37.197Z,114.89
2019-02-14T06:31:37.371Z,115.05
2019-02-14T06:32:37.500Z,115.21
2019-02-14T06:33:37.780Z,115.21
2019-02-14T06:34:37.940Z,115.05
2019-02-14T06:35:38.054Z,115.05
2019-02-14T06:36:38.208Z,115.21
2019-02-14T06:37:38.328Z,115.05
2019-02-14T06:38:38.559Z,114.89
2019-02-14T06:39:38.811Z,115.05
2019-02-14T06:40:38.937Z,115.21
2019-02-14T06:41:39.096Z,115.05
2019-02-14T06:42:39.201Z,115.05
2019-02-14T06:43:39.356Z,114.89
2019-02-14T06:44:39.449Z,115.05
2019-02-14T06:45:39.738Z,115.05
2019-02-14T06:46:39.809Z,115.05
2019-02-14T06:47:40.103Z,115.05
2019-02-14T06:48:40.236Z,115.21
2019-02-14T06:49:40.369Z,115.05
2019-02-14T06:50:40.508Z,115.05
2019-02-14T06:51:40.645Z,115.05
2019-02-14T06:52:41.368Z,116.66
